sensor_id;sensor_type;location;lat;lon;timestamp;P1;durP1;ratioP1;P2;durP2;ratioP2
7989;SDS011;4040;42.848;23.034;2022-07-29T00:03:29;11.90;;;10.55;;
7989;SDS011;4040;42.848;23.034;2022-07-29T00:13:41;12.10;;;10.25;;
7989;SDS011;4040;42.848;23.034;2022-07-29T00:19:30;14.43;;;10.27;;
7989;SDS011;4040;42.848;23.034;2022-07-29T00:25:19;11.07;;;9.93;;
7989;SDS011;4040;42.848;23.034;2022-07-29T00:31:09;12.40;;;10.40;;
7989;SDS011;4040;42.848;23.034;2022-07-29T00:36:57;11.27;;;10.13;;
7989;SDS011;4040;42.848;23.034;2022-07-29T00:42:47;13.90;;;10.43;;
7989;SDS011;4040;42.848;23.034;2022-07-29T00:48:39;13.77;;;11.27;;
7989;SDS011;4040;42.848;23.034;2022-07-29T00:54:27;13.40;;;10.75;;
7989;SDS011;4040;42.848;23.034;2022-07-29T01:00:17;16.65;;;11.60;;
7989;SDS011;4040;42.848;23.034;2022-07-29T01:06:08;17.45;;;10.77;;
7989;SDS011;4040;42.848;23.034;2022-07-29T01:16:20;12.98;;;11.57;;
7989;SDS011;4040;42.848;23.034;2022-07-29T01:22:18;14.52;;;12.38;;
7989;SDS011;4040;42.848;23.034;2022-07-29T01:28:20;12.90;;;11.55;;
7989;SDS011;4040;42.848;23.034;2022-07-29T01:34:44;14.13;;;12.10;;
7989;SDS011;4040;42.848;23.034;2022-07-29T01:40:40;14.20;;;11.95;;
7989;SDS011;4040;42.848;23.034;2022-07-29T01:46:34;14.63;;;11.88;;
7989;SDS011;4040;42.848;23.034;2022-07-29T01:52:31;15.48;;;12.25;;
7989;SDS011;4040;42.848;23.034;2022-07-29T01:58:22;14.57;;;12.30;;
7989;SDS011;4040;42.848;23.034;2022-07-29T02:04:13;12.80;;;11.07;;
7989;SDS011;4040;42.848;23.034;2022-07-29T02:10:06;14.70;;;11.73;;
7989;SDS011;4040;42.848;23.034;2022-07-29T02:15:57;13.43;;;11.35;;
7989;SDS011;4040;42.848;23.034;2022-07-29T02:21:48;15.00;;;12.90;;
7989;SDS011;4040;42.848;23.034;2022-07-29T02:27:42;15.55;;;12.10;;
7989;SDS011;4040;42.848;23.034;2022-07-29T02:33:32;14.85;;;11.45;;
7989;SDS011;4040;42.848;23.034;2022-07-29T02:39:21;14.38;;;12.35;;
7989;SDS011;4040;42.848;23.034;2022-07-29T02:45:13;15.63;;;12.52;;
7989;SDS011;4040;42.848;23.034;2022-07-29T02:51:05;13.85;;;11.82;;
7989;SDS011;4040;42.848;23.034;2022-07-29T02:56:56;13.77;;;12.35;;
7989;SDS011;4040;42.848;23.034;2022-07-29T03:02:50;13.00;;;10.63;;
7989;SDS011;4040;42.848;23.034;2022-07-29T03:08:42;13.45;;;12.05;;
7989;SDS011;4040;42.848;23.034;2022-07-29T03:18:54;13.32;;;11.35;;
7989;SDS011;4040;42.848;23.034;2022-07-29T03:24:43;13.50;;;11.40;;
7989;SDS011;4040;42.848;23.034;2022-07-29T03:30:32;14.00;;;11.40;;
7989;SDS011;4040;42.848;23.034;2022-07-29T03:36:22;14.38;;;11.60;;
7989;SDS011;4040;42.848;23.034;2022-07-29T03:42:11;13.90;;;11.50;;
7989;SDS011;4040;42.848;23.034;2022-07-29T03:48:05;15.13;;;11.32;;
7989;SDS011;4040;42.848;23.034;2022-07-29T03:53:59;17.00;;;12.02;;
7989;SDS011;4040;42.848;23.034;2022-07-29T03:59:49;15.75;;;12.07;;
7989;SDS011;4040;42.848;23.034;2022-07-29T04:05:39;14.90;;;11.00;;
7989;SDS011;4040;42.848;23.034;2022-07-29T04:11:29;14.75;;;13.15;;
7989;SDS011;4040;42.848;23.034;2022-07-29T04:17:48;13.38;;;11.93;;
7989;SDS011;4040;42.848;23.034;2022-07-29T04:23:36;16.48;;;13.02;;
7989;SDS011;4040;42.848;23.034;2022-07-29T04:29:26;14.75;;;12.65;;
7989;SDS011;4040;42.848;23.034;2022-07-29T04:35:15;14.15;;;12.65;;
7989;SDS011;4040;42.848;23.034;2022-07-29T04:42:19;17.67;;;13.55;;
7989;SDS011;4040;42.848;23.034;2022-07-29T04:48:08;14.75;;;13.25;;
7989;SDS011;4040;42.848;23.034;2022-07-29T04:53:56;17.08;;;12.30;;
7989;SDS011;4040;42.848;23.034;2022-07-29T04:59:47;13.30;;;11.90;;
7989;SDS011;4040;42.848;23.034;2022-07-29T05:05:35;19.40;;;13.55;;
7989;SDS011;4040;42.848;23.034;2022-07-29T05:11:24;13.68;;;12.18;;
7989;SDS011;4040;42.848;23.034;2022-07-29T05:17:14;14.68;;;12.40;;
7989;SDS011;4040;42.848;23.034;2022-07-29T05:23:03;14.82;;;11.93;;
7989;SDS011;4040;42.848;23.034;2022-07-29T05:28:52;12.82;;;10.57;;
7989;SDS011;4040;42.848;23.034;2022-07-29T05:34:43;11.55;;;10.45;;
7989;SDS011;4040;42.848;23.034;2022-07-29T05:44:53;11.75;;;10.65;;
7989;SDS011;4040;42.848;23.034;2022-07-29T05:50:43;13.63;;;9.82;;
7989;SDS011;4040;42.848;23.034;2022-07-29T05:56:32;11.82;;;9.05;;
7989;SDS011;4040;42.848;23.034;2022-07-29T06:02:21;10.05;;;8.90;;
7989;SDS011;4040;42.848;23.034;2022-07-29T06:08:11;12.60;;;8.18;;
7989;SDS011;4040;42.848;23.034;2022-07-29T06:13:59;8.00;;;6.22;;
7989;SDS011;4040;42.848;23.034;2022-07-29T06:19:49;7.95;;;7.15;;
7989;SDS011;4040;42.848;23.034;2022-07-29T06:25:40;8.48;;;7.68;;
7989;SDS011;4040;42.848;23.034;2022-07-29T06:31:29;7.80;;;7.00;;
7989;SDS011;4040;42.848;23.034;2022-07-29T06:37:18;8.25;;;6.82;;
7989;SDS011;4040;42.848;23.034;2022-07-29T06:47:30;7.22;;;6.53;;
7989;SDS011;4040;42.848;23.034;2022-07-29T06:53:19;9.00;;;6.35;;
7989;SDS011;4040;42.848;23.034;2022-07-29T06:59:08;9.00;;;7.13;;
7989;SDS011;4040;42.848;23.034;2022-07-29T07:04:59;7.15;;;6.25;;
7989;SDS011;4040;42.848;23.034;2022-07-29T07:10:48;6.60;;;5.97;;
7989;SDS011;4040;42.848;23.034;2022-07-29T07:16:37;11.65;;;5.82;;
7989;SDS011;4040;42.848;23.034;2022-07-29T07:22:27;7.22;;;5.80;;
7989;SDS011;4040;42.848;23.034;2022-07-29T07:28:15;6.50;;;5.90;;
7989;SDS011;4040;42.848;23.034;2022-07-29T07:34:04;8.13;;;6.22;;
7989;SDS011;4040;42.848;23.034;2022-07-29T07:39:54;7.38;;;6.38;;
7989;SDS011;4040;42.848;23.034;2022-07-29T07:50:05;7.00;;;6.28;;
7989;SDS011;4040;42.848;23.034;2022-07-29T07:55:57;6.05;;;5.47;;
7989;SDS011;4040;42.848;23.034;2022-07-29T08:01:46;7.63;;;5.53;;
7989;SDS011;4040;42.848;23.034;2022-07-29T08:07:35;5.80;;;5.25;;
7989;SDS011;4040;42.848;23.034;2022-07-29T08:13:26;7.68;;;6.03;;
7989;SDS011;4040;42.848;23.034;2022-07-29T08:19:16;7.25;;;5.30;;
7989;SDS011;4040;42.848;23.034;2022-07-29T08:25:05;7.28;;;5.88;;
7989;SDS011;4040;42.848;23.034;2022-07-29T08:30:56;6.65;;;5.38;;
7989;SDS011;4040;42.848;23.034;2022-07-29T08:36:45;6.43;;;5.65;;
7989;SDS011;4040;42.848;23.034;2022-07-29T08:42:33;6.47;;;5.85;;
7989;SDS011;4040;42.848;23.034;2022-07-29T08:52:46;5.45;;;5.05;;
7989;SDS011;4040;42.848;23.034;2022-07-29T08:58:37;8.30;;;4.72;;
7989;SDS011;4040;42.848;23.034;2022-07-29T09:04:29;7.60;;;5.50;;
7989;SDS011;4040;42.848;23.034;2022-07-29T09:10:22;5.13;;;4.40;;
7989;SDS011;4040;42.848;23.034;2022-07-29T09:16:11;4.25;;;3.95;;
7989;SDS011;4040;42.848;23.034;2022-07-29T09:22:00;4.70;;;4.18;;
7989;SDS011;4040;42.848;23.034;2022-07-29T09:27:51;5.57;;;4.22;;
7989;SDS011;4040;42.848;23.034;2022-07-29T09:33:39;5.22;;;4.07;;
7989;SDS011;4040;42.848;23.034;2022-07-29T09:39:29;6.97;;;3.95;;
7989;SDS011;4040;42.848;23.034;2022-07-29T09:45:28;5.57;;;4.40;;
7989;SDS011;4040;42.848;23.034;2022-07-29T09:55:46;4.20;;;3.90;;
7989;SDS011;4040;42.848;23.034;2022-07-29T10:01:37;7.07;;;4.45;;
7989;SDS011;4040;42.848;23.034;2022-07-29T10:07:26;4.30;;;3.95;;
7989;SDS011;4040;42.848;23.034;2022-07-29T10:13:31;5.03;;;4.43;;
7989;SDS011;4040;42.848;23.034;2022-07-29T10:19:22;5.88;;;4.45;;
7989;SDS011;4040;42.848;23.034;2022-07-29T10:25:11;4.65;;;4.03;;
7989;SDS011;4040;42.848;23.034;2022-07-29T10:31:06;4.80;;;4.32;;
7989;SDS011;4040;42.848;23.034;2022-07-29T10:37:03;5.28;;;4.10;;
7989;SDS011;4040;42.848;23.034;2022-07-29T10:43:02;4.80;;;4.35;;
7989;SDS011;4040;42.848;23.034;2022-07-29T10:49:10;6.10;;;4.35;;
7989;SDS011;4040;42.848;23.034;2022-07-29T10:55:02;6.43;;;4.05;;
7989;SDS011;4040;42.848;23.034;2022-07-29T11:00:52;4.90;;;4.50;;
7989;SDS011;4040;42.848;23.034;2022-07-29T11:12:57;4.93;;;4.43;;
7989;SDS011;4040;42.848;23.034;2022-07-29T11:25:13;5.55;;;4.70;;
7989;SDS011;4040;42.848;23.034;2022-07-29T11:31:03;5.60;;;4.18;;
7989;SDS011;4040;42.848;23.034;2022-07-29T11:43:12;6.10;;;5.53;;
7989;SDS011;4040;42.848;23.034;2022-07-29T11:49:35;5.43;;;4.93;;
7989;SDS011;4040;42.848;23.034;2022-07-29T11:55:24;5.30;;;4.80;;
7989;SDS011;4040;42.848;23.034;2022-07-29T12:01:13;5.35;;;4.85;;
7989;SDS011;4040;42.848;23.034;2022-07-29T12:07:06;8.55;;;5.30;;
7989;SDS011;4040;42.848;23.034;2022-07-29T12:12:54;4.95;;;4.55;;
7989;SDS011;4040;42.848;23.034;2022-07-29T12:18:54;6.57;;;5.10;;
7989;SDS011;4040;42.848;23.034;2022-07-29T12:24:44;6.90;;;5.30;;
7989;SDS011;4040;42.848;23.034;2022-07-29T12:30:37;5.07;;;4.47;;
7989;SDS011;4040;42.848;23.034;2022-07-29T12:36:30;5.78;;;4.18;;
7989;SDS011;4040;42.848;23.034;2022-07-29T12:42:20;5.40;;;4.90;;
7989;SDS011;4040;42.848;23.034;2022-07-29T12:48:09;4.97;;;4.35;;
7989;SDS011;4040;42.848;23.034;2022-07-29T12:58:28;7.68;;;4.95;;
7989;SDS011;4040;42.848;23.034;2022-07-29T13:04:24;5.57;;;4.63;;
7989;SDS011;4040;42.848;23.034;2022-07-29T13:10:15;5.50;;;5.00;;
7989;SDS011;4040;42.848;23.034;2022-07-29T13:16:06;5.43;;;4.80;;
7989;SDS011;4040;42.848;23.034;2022-07-29T13:21:55;4.75;;;4.35;;
7989;SDS011;4040;42.848;23.034;2022-07-29T13:27:44;5.32;;;4.80;;
7989;SDS011;4040;42.848;23.034;2022-07-29T13:33:34;6.35;;;5.15;;
7989;SDS011;4040;42.848;23.034;2022-07-29T13:39:23;7.43;;;4.80;;
7989;SDS011;4040;42.848;23.034;2022-07-29T13:45:11;5.80;;;4.85;;
7989;SDS011;4040;42.848;23.034;2022-07-29T13:51:02;9.65;;;4.93;;
7989;SDS011;4040;42.848;23.034;2022-07-29T14:01:12;5.93;;;5.18;;
7989;SDS011;4040;42.848;23.034;2022-07-29T14:07:02;5.78;;;5.28;;
7989;SDS011;4040;42.848;23.034;2022-07-29T14:12:51;8.55;;;5.35;;
7989;SDS011;4040;42.848;23.034;2022-07-29T14:18:40;7.35;;;5.30;;
7989;SDS011;4040;42.848;23.034;2022-07-29T14:24:30;5.80;;;5.30;;
7989;SDS011;4040;42.848;23.034;2022-07-29T14:30:19;6.18;;;5.18;;
7989;SDS011;4040;42.848;23.034;2022-07-29T14:36:07;7.57;;;5.20;;
7989;SDS011;4040;42.848;23.034;2022-07-29T14:41:58;6.30;;;5.45;;
7989;SDS011;4040;42.848;23.034;2022-07-29T14:47:46;6.13;;;5.43;;
7989;SDS011;4040;42.848;23.034;2022-07-29T14:53:36;11.77;;;5.50;;
7989;SDS011;4040;42.848;23.034;2022-07-29T15:03:48;6.45;;;5.80;;
7989;SDS011;4040;42.848;23.034;2022-07-29T15:09:37;7.85;;;5.32;;
7989;SDS011;4040;42.848;23.034;2022-07-29T15:15:26;6.10;;;5.50;;
7989;SDS011;4040;42.848;23.034;2022-07-29T15:21:16;5.88;;;5.28;;
7989;SDS011;4040;42.848;23.034;2022-07-29T15:27:05;5.93;;;5.38;;
7989;SDS011;4040;42.848;23.034;2022-07-29T15:32:54;6.60;;;5.90;;
7989;SDS011;4040;42.848;23.034;2022-07-29T15:38:44;9.95;;;6.65;;
7989;SDS011;4040;42.848;23.034;2022-07-29T15:44:32;7.00;;;6.30;;
7989;SDS011;4040;42.848;23.034;2022-07-29T15:50:22;11.15;;;6.15;;
7989;SDS011;4040;42.848;23.034;2022-07-29T15:56:12;8.63;;;6.07;;
7989;SDS011;4040;42.848;23.034;2022-07-29T16:06:23;12.10;;;6.93;;
7989;SDS011;4040;42.848;23.034;2022-07-29T16:12:13;9.00;;;7.00;;
7989;SDS011;4040;42.848;23.034;2022-07-29T16:18:02;8.20;;;6.85;;
7989;SDS011;4040;42.848;23.034;2022-07-29T16:23:50;8.25;;;6.40;;
7989;SDS011;4040;42.848;23.034;2022-07-29T16:29:40;10.50;;;7.00;;
7989;SDS011;4040;42.848;23.034;2022-07-29T16:35:29;7.68;;;6.88;;
7989;SDS011;4040;42.848;23.034;2022-07-29T16:41:18;6.32;;;5.72;;
7989;SDS011;4040;42.848;23.034;2022-07-29T16:47:08;7.13;;;6.22;;
7989;SDS011;4040;42.848;23.034;2022-07-29T16:52:57;6.90;;;6.30;;
7989;SDS011;4040;42.848;23.034;2022-07-29T16:58:46;7.13;;;6.43;;
7989;SDS011;4040;42.848;23.034;2022-07-29T17:08:58;8.25;;;6.78;;
7989;SDS011;4040;42.848;23.034;2022-07-29T17:14:46;7.57;;;6.40;;
7989;SDS011;4040;42.848;23.034;2022-07-29T17:20:35;7.20;;;6.50;;
7989;SDS011;4040;42.848;23.034;2022-07-29T17:26:26;8.52;;;6.25;;
7989;SDS011;4040;42.848;23.034;2022-07-29T17:32:14;7.47;;;6.38;;
7989;SDS011;4040;42.848;23.034;2022-07-29T17:38:03;9.57;;;6.90;;
7989;SDS011;4040;42.848;23.034;2022-07-29T17:43:53;7.20;;;6.50;;
7989;SDS011;4040;42.848;23.034;2022-07-29T17:49:43;7.53;;;6.72;;
7989;SDS011;4040;42.848;23.034;2022-07-29T17:55:32;9.50;;;6.60;;
7989;SDS011;4040;42.848;23.034;2022-07-29T18:01:22;8.90;;;6.80;;
7989;SDS011;4040;42.848;23.034;2022-07-29T18:11:32;8.95;;;6.82;;
7989;SDS011;4040;42.848;23.034;2022-07-29T18:17:23;7.93;;;6.97;;
7989;SDS011;4040;42.848;23.034;2022-07-29T18:23:11;9.88;;;6.68;;
7989;SDS011;4040;42.848;23.034;2022-07-29T18:29:00;8.95;;;7.63;;
7989;SDS011;4040;42.848;23.034;2022-07-29T18:34:51;9.73;;;8.05;;
7989;SDS011;4040;42.848;23.034;2022-07-29T18:40:39;8.18;;;7.47;;
7989;SDS011;4040;42.848;23.034;2022-07-29T18:46:28;9.30;;;7.57;;
7989;SDS011;4040;42.848;23.034;2022-07-29T18:52:19;9.50;;;7.88;;
7989;SDS011;4040;42.848;23.034;2022-07-29T18:58:07;9.43;;;8.43;;
7989;SDS011;4040;42.848;23.034;2022-07-29T19:03:56;8.93;;;8.05;;
7989;SDS011;4040;42.848;23.034;2022-07-29T19:14:08;9.63;;;7.95;;
7989;SDS011;4040;42.848;23.034;2022-07-29T19:19:57;10.63;;;8.63;;
7989;SDS011;4040;42.848;23.034;2022-07-29T19:25:46;10.00;;;9.00;;
7989;SDS011;4040;42.848;23.034;2022-07-29T19:31:36;10.05;;;9.05;;
7989;SDS011;4040;42.848;23.034;2022-07-29T19:37:25;9.98;;;8.93;;
7989;SDS011;4040;42.848;23.034;2022-07-29T19:43:13;11.18;;;9.27;;
7989;SDS011;4040;42.848;23.034;2022-07-29T19:49:04;10.38;;;8.88;;
7989;SDS011;4040;42.848;23.034;2022-07-29T19:54:52;9.95;;;8.88;;
7989;SDS011;4040;42.848;23.034;2022-07-29T20:00:41;11.52;;;9.13;;
7989;SDS011;4040;42.848;23.034;2022-07-29T20:06:32;10.25;;;9.13;;
7989;SDS011;4040;42.848;23.034;2022-07-29T20:16:42;10.65;;;9.35;;
7989;SDS011;4040;42.848;23.034;2022-07-29T20:22:32;10.27;;;9.27;;
7989;SDS011;4040;42.848;23.034;2022-07-29T20:28:21;11.95;;;10.30;;
7989;SDS011;4040;42.848;23.034;2022-07-29T20:34:10;14.52;;;9.60;;
7989;SDS011;4040;42.848;23.034;2022-07-29T20:40:01;10.40;;;9.05;;
7989;SDS011;4040;42.848;23.034;2022-07-29T20:45:50;10.48;;;8.85;;
7989;SDS011;4040;42.848;23.034;2022-07-29T20:51:39;9.75;;;8.75;;
7989;SDS011;4040;42.848;23.034;2022-07-29T20:57:29;9.20;;;8.30;;
7989;SDS011;4040;42.848;23.034;2022-07-29T21:03:18;11.05;;;9.55;;
7989;SDS011;4040;42.848;23.034;2022-07-29T21:09:07;8.15;;;7.35;;
7989;SDS011;4040;42.848;23.034;2022-07-29T21:19:18;8.30;;;7.50;;
7989;SDS011;4040;42.848;23.034;2022-07-29T21:25:07;9.90;;;8.90;;
7989;SDS011;4040;42.848;23.034;2022-07-29T21:30:57;10.45;;;8.70;;
7989;SDS011;4040;42.848;23.034;2022-07-29T21:36:48;9.23;;;8.25;;
7989;SDS011;4040;42.848;23.034;2022-07-29T21:42:37;8.88;;;7.97;;
7989;SDS011;4040;42.848;23.034;2022-07-29T21:48:27;9.77;;;8.77;;
7989;SDS011;4040;42.848;23.034;2022-07-29T21:54:17;11.65;;;8.98;;
7989;SDS011;4040;42.848;23.034;2022-07-29T22:08:33;10.65;;;9.52;;
7989;SDS011;4040;42.848;23.034;2022-07-29T22:14:21;11.32;;;9.52;;
7989;SDS011;4040;42.848;23.034;2022-07-29T22:20:11;12.63;;;9.38;;
7989;SDS011;4040;42.848;23.034;2022-07-29T22:26:01;12.02;;;9.65;;
7989;SDS011;4040;42.848;23.034;2022-07-29T22:31:50;10.13;;;9.13;;
7989;SDS011;4040;42.848;23.034;2022-07-29T22:37:38;9.63;;;8.63;;
7989;SDS011;4040;42.848;23.034;2022-07-29T22:43:28;9.32;;;8.43;;
7989;SDS011;4040;42.848;23.034;2022-07-29T22:49:17;9.23;;;8.32;;
7989;SDS011;4040;42.848;23.034;2022-07-29T22:55:06;9.73;;;8.63;;
7989;SDS011;4040;42.848;23.034;2022-07-29T23:00:56;9.10;;;7.97;;
7989;SDS011;4040;42.848;23.034;2022-07-29T23:11:06;9.63;;;8.45;;
7989;SDS011;4040;42.848;23.034;2022-07-29T23:16:57;13.70;;;9.27;;
7989;SDS011;4040;42.848;23.034;2022-07-29T23:22:45;8.90;;;8.00;;
7989;SDS011;4040;42.848;23.034;2022-07-29T23:28:33;8.98;;;8.07;;
7989;SDS011;4040;42.848;23.034;2022-07-29T23:34:24;9.02;;;7.82;;
7989;SDS011;4040;42.848;23.034;2022-07-29T23:40:12;9.35;;;8.35;;
7989;SDS011;4040;42.848;23.034;2022-07-29T23:46:02;10.18;;;6.95;;
7989;SDS011;4040;42.848;23.034;2022-07-29T23:51:52;8.18;;;7.13;;
7989;SDS011;4040;42.848;23.034;2022-07-29T23:57:40;8.30;;;7.50;;
